sensor_id;sensor_type;location;lat;lon;timestamp;temperature;humidity
38183;DHT22;23991;52.430;10.586;2023-08-08T00:00:04;15.20;66.10
38183;DHT22;23991;52.430;10.586;2023-08-08T00:02:30;15.10;66.30
38183;DHT22;23991;52.430;10.586;2023-08-08T00:04:56;15.00;66.60
38183;DHT22;23991;52.430;10.586;2023-08-08T00:07:22;15.00;66.80
38183;DHT22;23991;52.430;10.586;2023-08-08T00:09:47;14.90;67.00
38183;DHT22;23991;52.430;10.586;2023-08-08T00:12:13;14.90;67.20
38183;DHT22;23991;52.430;10.586;2023-08-08T00:14:38;14.90;67.40
38183;DHT22;23991;52.430;10.586;2023-08-08T00:17:04;14.90;67.50
38183;DHT22;23991;52.430;10.586;2023-08-08T00:19:30;14.90;67.50
38183;DHT22;23991;52.430;10.586;2023-08-08T00:21:55;14.80;67.70
38183;DHT22;23991;52.430;10.586;2023-08-08T00:24:21;14.80;67.90
38183;DHT22;23991;52.430;10.586;2023-08-08T00:26:46;14.80;68.00
38183;DHT22;23991;52.430;10.586;2023-08-08T00:29:12;14.80;67.90
38183;DHT22;23991;52.430;10.586;2023-08-08T00:31:38;14.80;68.00
38183;DHT22;23991;52.430;10.586;2023-08-08T00:34:03;14.80;68.00
38183;DHT22;23991;52.430;10.586;2023-08-08T00:36:29;14.80;68.30
38183;DHT22;23991;52.430;10.586;2023-08-08T00:38:54;14.70;68.40
38183;DHT22;23991;52.430;10.586;2023-08-08T00:41:20;14.80;68.40
38183;DHT22;23991;52.430;10.586;2023-08-08T00:43:45;14.70;68.50
38183;DHT22;23991;52.430;10.586;2023-08-08T00:46:11;14.70;68.50
38183;DHT22;23991;52.430;10.586;2023-08-08T00:48:37;14.80;68.70
38183;DHT22;23991;52.430;10.586;2023-08-08T00:51:02;14.70;68.80
38183;DHT22;23991;52.430;10.586;2023-08-08T00:53:30;14.70;69.00
38183;DHT22;23991;52.430;10.586;2023-08-08T00:55:58;14.80;69.10
38183;DHT22;23991;52.430;10.586;2023-08-08T00:58:24;14.70;69.20
38183;DHT22;23991;52.430;10.586;2023-08-08T01:00:50;14.60;69.60
38183;DHT22;23991;52.430;10.586;2023-08-08T01:03:17;14.60;69.80
38183;DHT22;23991;52.430;10.586;2023-08-08T01:05:48;14.70;69.90
38183;DHT22;23991;52.430;10.586;2023-08-08T01:08:19;14.60;70.10
38183;DHT22;23991;52.430;10.586;2023-08-08T01:10:47;14.60;70.30
38183;DHT22;23991;52.430;10.586;2023-08-08T01:13:17;14.50;70.70
38183;DHT22;23991;52.430;10.586;2023-08-08T01:19:06;14.50;71.20
38183;DHT22;23991;52.430;10.586;2023-08-08T01:21:35;14.50;71.40
38183;DHT22;23991;52.430;10.586;2023-08-08T01:24:24;14.50;71.40
38183;DHT22;23991;52.430;10.586;2023-08-08T01:26:56;14.50;71.70
38183;DHT22;23991;52.430;10.586;2023-08-08T01:29:22;14.40;71.90
38183;DHT22;23991;52.430;10.586;2023-08-08T01:31:47;14.40;72.00
38183;DHT22;23991;52.430;10.586;2023-08-08T01:34:13;14.40;72.10
38183;DHT22;23991;52.430;10.586;2023-08-08T01:36:57;14.40;72.20
38183;DHT22;23991;52.430;10.586;2023-08-08T01:39:30;14.40;72.40
38183;DHT22;23991;52.430;10.586;2023-08-08T01:41:56;14.40;72.50
38183;DHT22;23991;52.430;10.586;2023-08-08T01:44:24;14.40;72.60
38183;DHT22;23991;52.430;10.586;2023-08-08T01:46:52;14.40;72.80
38183;DHT22;23991;52.430;10.586;2023-08-08T01:49:18;14.40;73.00
38183;DHT22;23991;52.430;10.586;2023-08-08T01:51:44;14.30;73.20
38183;DHT22;23991;52.430;10.586;2023-08-08T01:54:09;14.30;73.40
38183;DHT22;23991;52.430;10.586;2023-08-08T01:56:35;14.30;73.60
38183;DHT22;23991;52.430;10.586;2023-08-08T01:59:01;14.30;73.70
38183;DHT22;23991;52.430;10.586;2023-08-08T02:01:26;14.30;73.80
38183;DHT22;23991;52.430;10.586;2023-08-08T02:03:52;14.30;74.00
38183;DHT22;23991;52.430;10.586;2023-08-08T02:06:18;14.30;74.00
38183;DHT22;23991;52.430;10.586;2023-08-08T02:08:43;14.20;74.20
38183;DHT22;23991;52.430;10.586;2023-08-08T02:11:09;14.10;74.40
38183;DHT22;23991;52.430;10.586;2023-08-08T02:13:34;14.20;74.50
38183;DHT22;23991;52.430;10.586;2023-08-08T02:16:00;14.10;74.50
38183;DHT22;23991;52.430;10.586;2023-08-08T02:18:25;14.10;74.60
38183;DHT22;23991;52.430;10.586;2023-08-08T02:20:51;14.20;74.70
38183;DHT22;23991;52.430;10.586;2023-08-08T02:23:16;14.20;74.60
38183;DHT22;23991;52.430;10.586;2023-08-08T02:25:42;14.20;74.80
38183;DHT22;23991;52.430;10.586;2023-08-08T02:28:08;14.10;74.70
38183;DHT22;23991;52.430;10.586;2023-08-08T02:30:33;14.10;74.70
38183;DHT22;23991;52.430;10.586;2023-08-08T02:32:59;14.20;74.80
38183;DHT22;23991;52.430;10.586;2023-08-08T02:35:24;14.10;74.90
38183;DHT22;23991;52.430;10.586;2023-08-08T02:37:50;14.20;74.90
38183;DHT22;23991;52.430;10.586;2023-08-08T02:40:16;14.10;75.10
38183;DHT22;23991;52.430;10.586;2023-08-08T02:42:41;14.10;75.30
38183;DHT22;23991;52.430;10.586;2023-08-08T02:45:07;14.10;75.30
38183;DHT22;23991;52.430;10.586;2023-08-08T02:47:33;14.10;75.30
38183;DHT22;23991;52.430;10.586;2023-08-08T02:49:58;14.10;75.40
38183;DHT22;23991;52.430;10.586;2023-08-08T02:52:24;14.10;75.60
38183;DHT22;23991;52.430;10.586;2023-08-08T02:54:49;14.10;75.60
38183;DHT22;23991;52.430;10.586;2023-08-08T02:57:16;14.10;75.80
38183;DHT22;23991;52.430;10.586;2023-08-08T02:59:41;14.10;75.80
38183;DHT22;23991;52.430;10.586;2023-08-08T03:02:07;14.00;76.00
38183;DHT22;23991;52.430;10.586;2023-08-08T03:04:33;14.00;76.10
38183;DHT22;23991;52.430;10.586;2023-08-08T03:06:58;14.10;76.20
38183;DHT22;23991;52.430;10.586;2023-08-08T03:09:24;14.10;76.30
38183;DHT22;23991;52.430;10.586;2023-08-08T03:11:49;14.10;76.40
38183;DHT22;23991;52.430;10.586;2023-08-08T03:14:15;14.10;76.60
38183;DHT22;23991;52.430;10.586;2023-08-08T03:16:40;14.10;76.70
38183;DHT22;23991;52.430;10.586;2023-08-08T03:19:06;14.10;76.80
38183;DHT22;23991;52.430;10.586;2023-08-08T03:21:32;14.00;77.00
38183;DHT22;23991;52.430;10.586;2023-08-08T03:23:57;14.00;77.10
38183;DHT22;23991;52.430;10.586;2023-08-08T03:26:23;14.00;77.10
38183;DHT22;23991;52.430;10.586;2023-08-08T03:28:49;14.10;77.10
38183;DHT22;23991;52.430;10.586;2023-08-08T03:31:16;14.00;77.30
38183;DHT22;23991;52.430;10.586;2023-08-08T03:33:42;14.10;77.30
38183;DHT22;23991;52.430;10.586;2023-08-08T03:36:08;14.10;77.50
38183;DHT22;23991;52.430;10.586;2023-08-08T03:38:34;14.00;77.60
38183;DHT22;23991;52.430;10.586;2023-08-08T03:41:00;14.10;77.70
38183;DHT22;23991;52.430;10.586;2023-08-08T03:43:26;14.00;77.80
38183;DHT22;23991;52.430;10.586;2023-08-08T03:45:51;14.00;77.90
38183;DHT22;23991;52.430;10.586;2023-08-08T03:48:17;14.10;78.00
38183;DHT22;23991;52.430;10.586;2023-08-08T03:50:43;14.10;78.10
38183;DHT22;23991;52.430;10.586;2023-08-08T03:53:08;14.10;78.20
38183;DHT22;23991;52.430;10.586;2023-08-08T03:55:34;14.10;78.10
38183;DHT22;23991;52.430;10.586;2023-08-08T03:57:59;14.20;78.10
38183;DHT22;23991;52.430;10.586;2023-08-08T04:00:25;14.20;78.30
38183;DHT22;23991;52.430;10.586;2023-08-08T04:02:50;14.20;78.30
38183;DHT22;23991;52.430;10.586;2023-08-08T04:05:16;14.20;78.40
38183;DHT22;23991;52.430;10.586;2023-08-08T04:07:42;14.20;78.40
38183;DHT22;23991;52.430;10.586;2023-08-08T04:10:07;14.20;78.50
38183;DHT22;23991;52.430;10.586;2023-08-08T04:12:33;14.20;78.50
38183;DHT22;23991;52.430;10.586;2023-08-08T04:14:59;14.20;78.40
38183;DHT22;23991;52.430;10.586;2023-08-08T04:17:24;14.30;78.30
38183;DHT22;23991;52.430;10.586;2023-08-08T04:19:50;14.30;78.40
38183;DHT22;23991;52.430;10.586;2023-08-08T04:22:16;14.30;78.40
38183;DHT22;23991;52.430;10.586;2023-08-08T04:24:42;14.30;78.20
38183;DHT22;23991;52.430;10.586;2023-08-08T04:27:07;14.30;78.10
38183;DHT22;23991;52.430;10.586;2023-08-08T04:29:33;14.40;78.00
38183;DHT22;23991;52.430;10.586;2023-08-08T04:31:58;14.40;77.80
38183;DHT22;23991;52.430;10.586;2023-08-08T04:34:24;14.50;77.70
38183;DHT22;23991;52.430;10.586;2023-08-08T04:36:49;14.60;77.40
38183;DHT22;23991;52.430;10.586;2023-08-08T04:39:15;14.60;77.20
38183;DHT22;23991;52.430;10.586;2023-08-08T04:41:41;14.60;77.20
38183;DHT22;23991;52.430;10.586;2023-08-08T04:44:06;14.70;77.00
38183;DHT22;23991;52.430;10.586;2023-08-08T04:46:32;14.70;77.00
38183;DHT22;23991;52.430;10.586;2023-08-08T04:48:58;14.80;77.10
38183;DHT22;23991;52.430;10.586;2023-08-08T04:51:23;14.80;77.00
38183;DHT22;23991;52.430;10.586;2023-08-08T04:53:49;14.80;77.00
38183;DHT22;23991;52.430;10.586;2023-08-08T04:56:14;14.80;76.70
38183;DHT22;23991;52.430;10.586;2023-08-08T04:58:40;14.90;76.80
38183;DHT22;23991;52.430;10.586;2023-08-08T05:01:05;14.90;76.20
38183;DHT22;23991;52.430;10.586;2023-08-08T05:03:31;15.00;76.10
38183;DHT22;23991;52.430;10.586;2023-08-08T05:05:56;15.10;76.00
38183;DHT22;23991;52.430;10.586;2023-08-08T05:08:24;15.20;75.70
38183;DHT22;23991;52.430;10.586;2023-08-08T05:10:49;15.30;75.50
38183;DHT22;23991;52.430;10.586;2023-08-08T05:13:15;15.30;75.00
38183;DHT22;23991;52.430;10.586;2023-08-08T05:15:40;15.30;74.70
38183;DHT22;23991;52.430;10.586;2023-08-08T05:18:06;15.40;74.60
38183;DHT22;23991;52.430;10.586;2023-08-08T05:20:32;15.50;74.20
38183;DHT22;23991;52.430;10.586;2023-08-08T05:22:57;15.60;74.00
38183;DHT22;23991;52.430;10.586;2023-08-08T05:25:23;15.70;73.50
38183;DHT22;23991;52.430;10.586;2023-08-08T05:27:48;15.80;73.30
38183;DHT22;23991;52.430;10.586;2023-08-08T05:30:15;15.90;73.00
38183;DHT22;23991;52.430;10.586;2023-08-08T05:32:40;16.00;72.60
38183;DHT22;23991;52.430;10.586;2023-08-08T05:35:06;16.10;72.50
38183;DHT22;23991;52.430;10.586;2023-08-08T05:37:32;16.10;72.30
38183;DHT22;23991;52.430;10.586;2023-08-08T05:39:58;16.20;72.20
38183;DHT22;23991;52.430;10.586;2023-08-08T05:42:23;16.30;71.80
38183;DHT22;23991;52.430;10.586;2023-08-08T05:44:49;16.40;71.30
38183;DHT22;23991;52.430;10.586;2023-08-08T05:47:14;16.50;71.00
38183;DHT22;23991;52.430;10.586;2023-08-08T05:49:40;16.60;70.80
38183;DHT22;23991;52.430;10.586;2023-08-08T05:52:08;16.80;70.10
38183;DHT22;23991;52.430;10.586;2023-08-08T05:54:34;16.80;70.00
38183;DHT22;23991;52.430;10.586;2023-08-08T05:57:01;16.80;69.90
38183;DHT22;23991;52.430;10.586;2023-08-08T05:59:27;16.90;69.40
38183;DHT22;23991;52.430;10.586;2023-08-08T06:01:52;16.90;69.60
38183;DHT22;23991;52.430;10.586;2023-08-08T06:04:18;17.00;69.10
38183;DHT22;23991;52.430;10.586;2023-08-08T06:06:43;17.10;69.00
38183;DHT22;23991;52.430;10.586;2023-08-08T06:09:09;17.20;68.60
38183;DHT22;23991;52.430;10.586;2023-08-08T06:11:35;17.30;68.40
38183;DHT22;23991;52.430;10.586;2023-08-08T06:14:00;17.50;67.90
38183;DHT22;23991;52.430;10.586;2023-08-08T06:16:26;17.70;67.50
38183;DHT22;23991;52.430;10.586;2023-08-08T06:18:52;17.80;67.10
38183;DHT22;23991;52.430;10.586;2023-08-08T06:21:18;18.00;66.20
38183;DHT22;23991;52.430;10.586;2023-08-08T06:23:43;18.20;66.00
38183;DHT22;23991;52.430;10.586;2023-08-08T06:26:09;18.20;65.20
38183;DHT22;23991;52.430;10.586;2023-08-08T06:28:35;18.30;64.90
38183;DHT22;23991;52.430;10.586;2023-08-08T06:31:00;18.40;64.70
38183;DHT22;23991;52.430;10.586;2023-08-08T06:33:26;18.60;63.80
38183;DHT22;23991;52.430;10.586;2023-08-08T06:35:55;18.60;63.50
38183;DHT22;23991;52.430;10.586;2023-08-08T06:38:21;18.80;63.40
38183;DHT22;23991;52.430;10.586;2023-08-08T06:40:47;18.90;63.20
38183;DHT22;23991;52.430;10.586;2023-08-08T06:43:13;18.90;62.50
38183;DHT22;23991;52.430;10.586;2023-08-08T06:45:39;19.00;62.10
38183;DHT22;23991;52.430;10.586;2023-08-08T06:48:05;19.10;62.10
38183;DHT22;23991;52.430;10.586;2023-08-08T06:50:32;19.30;61.90
38183;DHT22;23991;52.430;10.586;2023-08-08T06:52:58;19.40;61.50
38183;DHT22;23991;52.430;10.586;2023-08-08T06:55:24;19.50;61.20
38183;DHT22;23991;52.430;10.586;2023-08-08T06:57:50;19.60;60.70
38183;DHT22;23991;52.430;10.586;2023-08-08T07:00:16;19.90;60.30
38183;DHT22;23991;52.430;10.586;2023-08-08T07:02:42;20.10;59.50
38183;DHT22;23991;52.430;10.586;2023-08-08T07:05:08;20.40;58.80
38183;DHT22;23991;52.430;10.586;2023-08-08T07:07:35;20.50;57.90
38183;DHT22;23991;52.430;10.586;2023-08-08T07:10:04;20.60;58.00
38183;DHT22;23991;52.430;10.586;2023-08-08T07:12:32;20.70;57.50
38183;DHT22;23991;52.430;10.586;2023-08-08T07:14:58;20.90;56.80
38183;DHT22;23991;52.430;10.586;2023-08-08T07:17:24;20.90;55.90
38183;DHT22;23991;52.430;10.586;2023-08-08T07:19:50;20.60;56.90
38183;DHT22;23991;52.430;10.586;2023-08-08T07:22:16;20.70;56.70
38183;DHT22;23991;52.430;10.586;2023-08-08T07:24:42;21.00;57.00
38183;DHT22;23991;52.430;10.586;2023-08-08T07:27:08;21.30;55.70
38183;DHT22;23991;52.430;10.586;2023-08-08T07:29:34;21.50;54.80
38183;DHT22;23991;52.430;10.586;2023-08-08T07:32:03;21.70;54.80
38183;DHT22;23991;52.430;10.586;2023-08-08T07:34:29;22.00;53.90
38183;DHT22;23991;52.430;10.586;2023-08-08T07:36:56;22.00;53.20
38183;DHT22;23991;52.430;10.586;2023-08-08T07:39:22;22.20;52.50
38183;DHT22;23991;52.430;10.586;2023-08-08T07:41:48;22.30;51.90
38183;DHT22;23991;52.430;10.586;2023-08-08T07:44:14;22.40;51.40
38183;DHT22;23991;52.430;10.586;2023-08-08T07:46:40;22.40;51.90
38183;DHT22;23991;52.430;10.586;2023-08-08T07:49:06;22.40;51.20
38183;DHT22;23991;52.430;10.586;2023-08-08T07:51:33;22.30;51.20
38183;DHT22;23991;52.430;10.586;2023-08-08T07:53:59;22.70;51.20
38183;DHT22;23991;52.430;10.586;2023-08-08T07:56:25;22.90;49.90
38183;DHT22;23991;52.430;10.586;2023-08-08T07:58:51;23.40;48.90
38183;DHT22;23991;52.430;10.586;2023-08-08T08:01:17;24.00;47.50
38183;DHT22;23991;52.430;10.586;2023-08-08T08:03:43;24.20;46.90
38183;DHT22;23991;52.430;10.586;2023-08-08T08:06:08;24.30;44.60
38183;DHT22;23991;52.430;10.586;2023-08-08T08:08:34;24.70;45.10
38183;DHT22;23991;52.430;10.586;2023-08-08T08:11:03;24.90;45.50
38183;DHT22;23991;52.430;10.586;2023-08-08T08:13:29;25.10;45.00
38183;DHT22;23991;52.430;10.586;2023-08-08T08:15:55;24.70;44.40
38183;DHT22;23991;52.430;10.586;2023-08-08T08:18:20;24.50;44.80
38183;DHT22;23991;52.430;10.586;2023-08-08T08:20:47;24.70;44.70
38183;DHT22;23991;52.430;10.586;2023-08-08T08:23:13;25.00;43.90
38183;DHT22;23991;52.430;10.586;2023-08-08T08:25:38;25.20;43.30
38183;DHT22;23991;52.430;10.586;2023-08-08T08:28:04;25.40;42.90
38183;DHT22;23991;52.430;10.586;2023-08-08T08:30:30;25.80;43.00
38183;DHT22;23991;52.430;10.586;2023-08-08T08:32:55;26.00;41.60
38183;DHT22;23991;52.430;10.586;2023-08-08T08:35:22;26.20;41.50
38183;DHT22;23991;52.430;10.586;2023-08-08T08:37:48;26.20;40.30
38183;DHT22;23991;52.430;10.586;2023-08-08T08:40:14;26.50;40.60
38183;DHT22;23991;52.430;10.586;2023-08-08T08:42:40;26.40;40.30
38183;DHT22;23991;52.430;10.586;2023-08-08T08:45:10;26.20;40.80
38183;DHT22;23991;52.430;10.586;2023-08-08T08:47:41;26.00;41.20
38183;DHT22;23991;52.430;10.586;2023-08-08T08:50:10;25.40;41.10
38183;DHT22;23991;52.430;10.586;2023-08-08T08:52:36;25.20;41.40
38183;DHT22;23991;52.430;10.586;2023-08-08T08:55:04;24.80;41.00
38183;DHT22;23991;52.430;10.586;2023-08-08T08:57:30;24.70;41.20
38183;DHT22;23991;52.430;10.586;2023-08-08T08:59:58;24.30;41.80
38183;DHT22;23991;52.430;10.586;2023-08-08T09:02:24;24.40;41.80
38183;DHT22;23991;52.430;10.586;2023-08-08T09:04:50;24.50;41.70
38183;DHT22;23991;52.430;10.586;2023-08-08T09:07:19;24.20;42.40
38183;DHT22;23991;52.430;10.586;2023-08-08T09:09:46;24.30;42.80
38183;DHT22;23991;52.430;10.586;2023-08-08T09:12:12;24.00;43.60
38183;DHT22;23991;52.430;10.586;2023-08-08T09:14:41;24.10;43.40
38183;DHT22;23991;52.430;10.586;2023-08-08T09:17:13;24.10;43.40
38183;DHT22;23991;52.430;10.586;2023-08-08T09:19:43;24.20;43.30
38183;DHT22;23991;52.430;10.586;2023-08-08T09:22:09;24.60;42.10
38183;DHT22;23991;52.430;10.586;2023-08-08T09:24:39;24.70;41.30
38183;DHT22;23991;52.430;10.586;2023-08-08T09:27:08;25.10;40.30
38183;DHT22;23991;52.430;10.586;2023-08-08T09:29:35;25.20;40.30
38183;DHT22;23991;52.430;10.586;2023-08-08T09:32:06;25.50;39.50
38183;DHT22;23991;52.430;10.586;2023-08-08T09:34:32;25.50;39.30
38183;DHT22;23991;52.430;10.586;2023-08-08T09:36:59;25.40;39.00
38183;DHT22;23991;52.430;10.586;2023-08-08T09:39:25;25.20;39.70
38183;DHT22;23991;52.430;10.586;2023-08-08T09:41:51;25.20;39.50
38183;DHT22;23991;52.430;10.586;2023-08-08T09:44:17;25.10;39.80
38183;DHT22;23991;52.430;10.586;2023-08-08T09:46:43;25.40;39.10
38183;DHT22;23991;52.430;10.586;2023-08-08T09:49:10;25.50;39.20
38183;DHT22;23991;52.430;10.586;2023-08-08T09:51:36;25.70;38.90
38183;DHT22;23991;52.430;10.586;2023-08-08T09:54:02;25.40;38.90
38183;DHT22;23991;52.430;10.586;2023-08-08T09:56:29;25.10;39.70
38183;DHT22;23991;52.430;10.586;2023-08-08T09:58:57;24.80;41.10
38183;DHT22;23991;52.430;10.586;2023-08-08T10:01:22;25.00;42.10
38183;DHT22;23991;52.430;10.586;2023-08-08T10:03:51;25.00;42.20
38183;DHT22;23991;52.430;10.586;2023-08-08T10:06:18;24.80;42.10
38183;DHT22;23991;52.430;10.586;2023-08-08T10:08:45;24.60;43.00
38183;DHT22;23991;52.430;10.586;2023-08-08T10:11:11;24.30;43.50
38183;DHT22;23991;52.430;10.586;2023-08-08T10:13:37;24.30;43.70
38183;DHT22;23991;52.430;10.586;2023-08-08T10:16:07;24.30;43.90
38183;DHT22;23991;52.430;10.586;2023-08-08T10:18:33;24.20;44.40
38183;DHT22;23991;52.430;10.586;2023-08-08T10:20:59;24.20;44.50
38183;DHT22;23991;52.430;10.586;2023-08-08T10:23:25;24.20;44.50
38183;DHT22;23991;52.430;10.586;2023-08-08T10:25:52;24.40;44.20
38183;DHT22;23991;52.430;10.586;2023-08-08T10:28:21;24.50;43.80
38183;DHT22;23991;52.430;10.586;2023-08-08T10:35:54;24.70;44.30
38183;DHT22;23991;52.430;10.586;2023-08-08T10:38:20;24.40;45.10
38183;DHT22;23991;52.430;10.586;2023-08-08T10:40:47;24.20;46.00
38183;DHT22;23991;52.430;10.586;2023-08-08T10:43:13;24.40;46.50
38183;DHT22;23991;52.430;10.586;2023-08-08T10:45:41;24.20;46.50
38183;DHT22;23991;52.430;10.586;2023-08-08T10:48:10;24.40;46.20
38183;DHT22;23991;52.430;10.586;2023-08-08T10:50:40;24.40;46.30
38183;DHT22;23991;52.430;10.586;2023-08-08T10:53:08;24.40;45.90
38183;DHT22;23991;52.430;10.586;2023-08-08T10:55:36;24.20;46.50
38183;DHT22;23991;52.430;10.586;2023-08-08T10:58:10;24.20;47.10
38183;DHT22;23991;52.430;10.586;2023-08-08T11:00:37;24.30;47.40
38183;DHT22;23991;52.430;10.586;2023-08-08T11:03:05;24.20;47.80
38183;DHT22;23991;52.430;10.586;2023-08-08T11:05:32;24.20;47.30
38183;DHT22;23991;52.430;10.586;2023-08-08T11:07:59;23.80;47.30
38183;DHT22;23991;52.430;10.586;2023-08-08T11:10:25;23.70;47.10
38183;DHT22;23991;52.430;10.586;2023-08-08T11:13:04;23.70;47.70
38183;DHT22;23991;52.430;10.586;2023-08-08T11:15:32;24.20;46.90
38183;DHT22;23991;52.430;10.586;2023-08-08T11:17:59;23.90;45.50
38183;DHT22;23991;52.430;10.586;2023-08-08T11:20:29;23.80;45.90
38183;DHT22;23991;52.430;10.586;2023-08-08T11:22:56;23.90;46.10
38183;DHT22;23991;52.430;10.586;2023-08-08T11:25:25;24.40;45.90
38183;DHT22;23991;52.430;10.586;2023-08-08T11:27:52;24.70;44.50
38183;DHT22;23991;52.430;10.586;2023-08-08T11:30:19;25.60;42.90
38183;DHT22;23991;52.430;10.586;2023-08-08T11:32:46;26.70;40.70
38183;DHT22;23991;52.430;10.586;2023-08-08T11:35:21;27.20;40.30
38183;DHT22;23991;52.430;10.586;2023-08-08T11:37:48;28.00;39.00
38183;DHT22;23991;52.430;10.586;2023-08-08T11:40:14;28.80;38.20
38183;DHT22;23991;52.430;10.586;2023-08-08T11:42:41;28.80;37.40
38183;DHT22;23991;52.430;10.586;2023-08-08T11:45:09;28.30;38.80
38183;DHT22;23991;52.430;10.586;2023-08-08T11:47:35;28.20;39.10
38183;DHT22;23991;52.430;10.586;2023-08-08T11:50:04;28.30;39.70
38183;DHT22;23991;52.430;10.586;2023-08-08T11:52:30;28.20;39.90
38183;DHT22;23991;52.430;10.586;2023-08-08T11:54:57;28.60;38.90
38183;DHT22;23991;52.430;10.586;2023-08-08T11:57:23;28.60;39.00
38183;DHT22;23991;52.430;10.586;2023-08-08T11:59:49;28.70;39.30
38183;DHT22;23991;52.430;10.586;2023-08-08T12:02:15;29.20;38.10
38183;DHT22;23991;52.430;10.586;2023-08-08T12:04:47;29.50;34.40
38183;DHT22;23991;52.430;10.586;2023-08-08T12:07:13;29.50;33.70
38183;DHT22;23991;52.430;10.586;2023-08-08T12:09:39;30.20;32.70
38183;DHT22;23991;52.430;10.586;2023-08-08T12:12:05;30.50;31.40
38183;DHT22;23991;52.430;10.586;2023-08-08T12:14:39;31.20;31.10
38183;DHT22;23991;52.430;10.586;2023-08-08T12:17:05;31.70;30.60
38183;DHT22;23991;52.430;10.586;2023-08-08T12:19:31;31.80;30.80
38183;DHT22;23991;52.430;10.586;2023-08-08T12:21:56;32.40;30.40
38183;DHT22;23991;52.430;10.586;2023-08-08T12:24:22;32.40;29.40
38183;DHT22;23991;52.430;10.586;2023-08-08T12:26:48;32.30;29.30
38183;DHT22;23991;52.430;10.586;2023-08-08T12:29:14;31.90;30.30
38183;DHT22;23991;52.430;10.586;2023-08-08T12:31:39;32.20;29.70
38183;DHT22;23991;52.430;10.586;2023-08-08T12:34:06;32.00;30.10
38183;DHT22;23991;52.430;10.586;2023-08-08T12:36:32;31.70;30.10
38183;DHT22;23991;52.430;10.586;2023-08-08T12:38:57;31.20;31.70
38183;DHT22;23991;52.430;10.586;2023-08-08T12:41:23;30.90;33.70
38183;DHT22;23991;52.430;10.586;2023-08-08T12:43:52;30.50;34.70
38183;DHT22;23991;52.430;10.586;2023-08-08T12:46:18;30.40;35.10
38183;DHT22;23991;52.430;10.586;2023-08-08T12:48:44;30.40;35.10
38183;DHT22;23991;52.430;10.586;2023-08-08T12:51:10;30.10;34.30
38183;DHT22;23991;52.430;10.586;2023-08-08T12:53:36;29.50;34.10
38183;DHT22;23991;52.430;10.586;2023-08-08T12:56:01;29.80;33.90
38183;DHT22;23991;52.430;10.586;2023-08-08T12:58:27;30.60;32.60
38183;DHT22;23991;52.430;10.586;2023-08-08T13:00:53;31.40;31.40
38183;DHT22;23991;52.430;10.586;2023-08-08T13:03:18;31.80;30.30
38183;DHT22;23991;52.430;10.586;2023-08-08T13:05:44;32.00;29.90
38183;DHT22;23991;52.430;10.586;2023-08-08T13:08:10;31.90;30.30
38183;DHT22;23991;52.430;10.586;2023-08-08T13:10:36;31.80;30.00
38183;DHT22;23991;52.430;10.586;2023-08-08T13:13:01;31.50;30.50
38183;DHT22;23991;52.430;10.586;2023-08-08T13:15:27;31.30;31.00
38183;DHT22;23991;52.430;10.586;2023-08-08T13:17:53;31.30;31.30
38183;DHT22;23991;52.430;10.586;2023-08-08T13:20:18;31.20;31.60
38183;DHT22;23991;52.430;10.586;2023-08-08T13:22:44;31.60;31.00
38183;DHT22;23991;52.430;10.586;2023-08-08T13:25:09;31.90;30.10
38183;DHT22;23991;52.430;10.586;2023-08-08T13:27:36;31.60;30.20
38183;DHT22;23991;52.430;10.586;2023-08-08T13:30:03;30.50;30.40
38183;DHT22;23991;52.430;10.586;2023-08-08T13:32:29;29.70;31.40
38183;DHT22;23991;52.430;10.586;2023-08-08T13:34:54;28.90;31.70
38183;DHT22;23991;52.430;10.586;2023-08-08T13:37:20;28.60;32.50
38183;DHT22;23991;52.430;10.586;2023-08-08T13:39:45;28.50;33.20
38183;DHT22;23991;52.430;10.586;2023-08-08T13:42:11;28.80;32.10
38183;DHT22;23991;52.430;10.586;2023-08-08T13:44:37;29.00;32.50
38183;DHT22;23991;52.430;10.586;2023-08-08T13:47:02;29.10;32.50
38183;DHT22;23991;52.430;10.586;2023-08-08T13:49:28;29.10;33.10
38183;DHT22;23991;52.430;10.586;2023-08-08T13:51:54;29.00;33.00
38183;DHT22;23991;52.430;10.586;2023-08-08T13:54:20;28.00;39.70
38183;DHT22;23991;52.430;10.586;2023-08-08T13:56:46;27.30;42.30
38183;DHT22;23991;52.430;10.586;2023-08-08T13:59:11;27.00;42.10
38183;DHT22;23991;52.430;10.586;2023-08-08T14:01:37;26.40;43.70
38183;DHT22;23991;52.430;10.586;2023-08-08T14:04:03;26.20;43.80
38183;DHT22;23991;52.430;10.586;2023-08-08T14:06:29;25.90;44.70
38183;DHT22;23991;52.430;10.586;2023-08-08T14:08:56;26.00;44.10
38183;DHT22;23991;52.430;10.586;2023-08-08T14:11:21;25.70;45.10
38183;DHT22;23991;52.430;10.586;2023-08-08T14:13:47;25.70;45.10
38183;DHT22;23991;52.430;10.586;2023-08-08T14:16:13;25.80;44.60
38183;DHT22;23991;52.430;10.586;2023-08-08T14:18:38;25.70;45.50
38183;DHT22;23991;52.430;10.586;2023-08-08T14:21:04;26.00;45.30
38183;DHT22;23991;52.430;10.586;2023-08-08T14:23:30;26.20;45.40
38183;DHT22;23991;52.430;10.586;2023-08-08T14:25:56;26.20;45.10
38183;DHT22;23991;52.430;10.586;2023-08-08T14:28:21;26.40;44.70
38183;DHT22;23991;52.430;10.586;2023-08-08T14:30:47;26.50;43.70
38183;DHT22;23991;52.430;10.586;2023-08-08T14:33:16;26.70;43.50
38183;DHT22;23991;52.430;10.586;2023-08-08T14:35:42;26.90;43.50
38183;DHT22;23991;52.430;10.586;2023-08-08T14:38:08;27.50;41.90
38183;DHT22;23991;52.430;10.586;2023-08-08T14:40:34;27.80;40.30
38183;DHT22;23991;52.430;10.586;2023-08-08T14:43:02;28.00;40.00
38183;DHT22;23991;52.430;10.586;2023-08-08T14:45:28;27.60;40.30
38183;DHT22;23991;52.430;10.586;2023-08-08T14:47:55;27.50;40.50
38183;DHT22;23991;52.430;10.586;2023-08-08T14:50:20;27.00;42.40
38183;DHT22;23991;52.430;10.586;2023-08-08T14:52:46;26.70;43.80
38183;DHT22;23991;52.430;10.586;2023-08-08T14:55:11;26.20;44.80
38183;DHT22;23991;52.430;10.586;2023-08-08T14:57:37;25.80;45.20
38183;DHT22;23991;52.430;10.586;2023-08-08T15:00:03;25.20;44.90
38183;DHT22;23991;52.430;10.586;2023-08-08T15:02:30;25.00;46.60
38183;DHT22;23991;52.430;10.586;2023-08-08T15:04:55;24.90;47.30
38183;DHT22;23991;52.430;10.586;2023-08-08T15:07:21;24.70;47.90
38183;DHT22;23991;52.430;10.586;2023-08-08T15:09:47;24.90;47.60
38183;DHT22;23991;52.430;10.586;2023-08-08T15:12:17;25.20;47.50
38183;DHT22;23991;52.430;10.586;2023-08-08T15:14:43;25.50;47.70
38183;DHT22;23991;52.430;10.586;2023-08-08T15:17:08;26.10;46.80